Time;durP1;ratioP1;P1;durP2;ratioP2;P2;SDS_P1;SDS_P2;PMS_P1;PMS_P2;Temp;Humidity;BMP_temperature;BMP_pressure;BME280_temperature;BME280_humidity;BME280_pressure;Samples;Min_cycle;Max_cycle;Signal;HPM_P1;HPM_P2
2022/02/03 00:01:49;;;;;;;17.92;5.05;;;3.00;99.90;;;;;;5023121;28;20111;-82
2022/02/03 00:04:18;;;;;;;12.60;4.40;;;3.10;99.90;;;;;;5048393;28;20611;-80
2022/02/03 00:06:53;;;;;;;18.83;4.35;;;3.10;99.90;;;;;;5042267;28;20036;-80
2022/02/03 00:09:52;;;;;;;8.80;4.07;;;3.10;99.90;;;;;;5039042;28;20338;-80
2022/02/03 00:23:15;;;;;;;19.02;5.20;;;3.10;99.90;;;;;;5061065;28;20084;-80
2022/02/03 00:25:43;;;;;;;16.55;5.05;;;3.00;99.90;;;;;;5064759;28;20045;-81
2022/02/03 00:28:23;;;;;;;13.60;4.63;;;3.10;99.90;;;;;;5019006;28;20040;-80
2022/02/03 00:33:33;;;;;;;23.60;5.80;;;3.10;99.90;;;;;;5055488;28;20037;-80
2022/02/03 00:49:36;;;;;;;14.75;4.93;;;3.20;99.90;;;;;;5046794;28;20029;-80
2022/02/03 00:52:02;;;;;;;17.02;4.93;;;3.30;99.90;;;;;;5042878;28;20396;-80
2022/02/03 00:54:31;;;;;;;21.25;5.40;;;3.20;99.90;;;;;;5027569;28;20158;-80
2022/02/03 00:57:01;;;;;;;15.43;4.35;;;3.20;99.90;;;;;;5029513;28;20115;-80
2022/02/03 00:59:40;;;;;;;21.45;5.28;;;3.30;99.90;;;;;;5029002;28;20048;-81
2022/02/03 01:02:09;;;;;;;18.05;4.82;;;3.20;99.90;;;;;;5033008;28;20033;-79
2022/02/03 01:04:38;;;;;;;22.52;4.95;;;3.20;99.90;;;;;;5035566;28;20064;-80
2022/02/03 01:07:12;;;;;;;14.75;4.63;;;3.20;99.90;;;;;;5051100;28;20090;-81
2022/02/03 01:09:48;;;;;;;28.58;10.45;;;3.10;99.90;;;;;;5034045;28;20040;-81
2022/02/03 01:12:25;;;;;;;19.05;6.18;;;3.20;99.90;;;;;;5027042;28;20432;-81
2022/02/03 01:15:32;;;;;;;16.88;4.32;;;3.20;99.90;;;;;;5045221;28;20033;-81
2022/02/03 01:18:07;;;;;;;19.23;4.57;;;3.20;99.90;;;;;;5050299;28;20489;-79
2022/02/03 01:37:15;;;;;;;23.02;6.05;;;3.40;99.90;;;;;;5059087;28;20043;-81
2022/02/03 01:46:11;;;;;;;13.00;4.75;;;3.30;99.90;;;;;;5056534;28;20064;-81
2022/02/03 01:48:37;;;;;;;13.45;4.55;;;3.20;99.90;;;;;;5052913;28;20511;-81
2022/02/03 01:53:50;;;;;;;16.08;5.05;;;3.30;99.90;;;;;;5058994;28;20492;-80
2022/02/03 01:56:22;;;;;;;15.38;5.22;;;3.40;99.90;;;;;;5021435;28;20061;-80
2022/02/03 01:58:47;;;;;;;22.35;5.57;;;3.40;99.90;;;;;;5002758;28;20113;-79
2022/02/03 02:01:14;;;;;;;13.57;4.40;;;3.40;99.90;;;;;;5020072;28;20057;-80
2022/02/03 02:04:08;;;;;;;15.07;4.15;;;3.40;99.90;;;;;;5019205;28;20041;-79
2022/02/03 02:07:10;;;;;;;14.10;5.75;;;3.50;99.90;;;;;;5018969;28;20073;-79
2022/02/03 02:13:19;;;;;;;28.13;5.10;;;3.60;99.90;;;;;;5036869;28;20029;-81
2022/02/03 02:16:03;;;;;;;14.43;5.03;;;3.60;99.90;;;;;;5035725;28;20021;-81
2022/02/03 02:43:16;;;;;;;20.40;5.38;;;3.30;99.90;;;;;;5004698;28;20041;-81
2022/02/03 02:45:56;;;;;;;12.25;4.45;;;3.30;99.90;;;;;;5019095;28;20026;-80
2022/02/03 02:48:25;;;;;;;13.88;5.13;;;3.30;99.90;;;;;;5018876;28;20036;-80
2022/02/03 02:51:07;;;;;;;15.10;4.50;;;3.20;99.90;;;;;;5018504;28;20386;-82
2022/02/03 02:53:55;;;;;;;16.90;4.35;;;3.20;99.90;;;;;;5018322;28;20029;-80
2022/02/03 02:56:37;;;;;;;18.67;5.25;;;3.20;99.90;;;;;;5018692;28;20032;-80
2022/02/03 03:30:07;;;;;;;13.65;4.53;;;3.30;99.90;;;;;;5047378;28;20355;-80
2022/02/03 03:33:06;;;;;;;11.55;5.07;;;3.40;99.90;;;;;;5029594;28;20033;-79
2022/02/03 03:35:42;;;;;;;17.20;4.53;;;3.40;99.90;;;;;;5030057;28;20100;-81
2022/02/03 03:38:09;;;;;;;16.23;4.30;;;3.40;99.90;;;;;;5056724;28;20037;-81
2022/02/03 03:40:45;;;;;;;15.05;4.35;;;3.40;99.90;;;;;;5041453;28;20032;-82
2022/02/03 03:43:38;;;;;;;13.10;5.25;;;3.40;99.90;;;;;;5030848;28;20512;-81
2022/02/03 03:46:33;;;;;;;13.45;4.43;;;3.50;99.90;;;;;;5034296;28;20057;-79
2022/02/03 03:49:25;;;;;;;13.85;3.85;;;3.50;99.90;;;;;;5040808;28;20025;-81
2022/02/03 03:52:03;;;;;;;14.00;5.28;;;3.60;99.90;;;;;;5057588;28;20127;-81
2022/02/03 04:32:06;;;;;;;19.23;4.60;;;3.90;99.90;;;;;;5037126;28;20083;-80
2022/02/03 05:10:59;;;;;;;12.00;4.35;;;3.90;99.90;;;;;;5076447;28;20033;-83
2022/02/03 05:20:32;;;;;;;14.80;4.57;;;4.10;99.90;;;;;;5079554;28;20020;-80
2022/02/03 05:32:33;;;;;;;10.75;3.95;;;4.30;99.90;;;;;;5062520;28;19944;-79
2022/02/03 05:45:03;;;;;;;10.13;4.53;;;4.20;99.90;;;;;;5037775;28;20102;-81
2022/02/03 06:00:56;;;;;;;18.95;8.23;;;4.30;99.90;;;;;;5059914;28;20041;-81
2022/02/03 06:14:28;;;;;;;14.50;5.32;;;4.50;99.90;;;;;;4981147;28;20515;-80
2022/02/03 06:22:24;;;;;;;19.70;6.55;;;4.60;99.90;;;;;;5038824;28;20061;-78
2022/02/03 06:27:24;;;;;;;19.13;7.55;;;4.60;99.90;;;;;;5040763;28;20045;-80
2022/02/03 06:27:40;;;;;;;18.00;7.45;;;4.50;99.90;;;;;;5043815;28;20092;-80
2022/02/03 06:30:07;;;;;;;19.73;8.60;;;4.50;99.90;;;;;;5025406;28;20044;-80
2022/02/03 06:32:36;;;;;;;22.00;9.23;;;4.50;99.90;;;;;;5025913;28;20036;-80
2022/02/03 06:35:02;;;;;;;23.63;9.18;;;4.50;99.90;;;;;;5023939;28;20727;-80
2022/02/03 06:37:29;;;;;;;25.50;11.13;;;4.60;99.90;;;;;;5028832;28;20060;-80
2022/02/03 06:39:58;;;;;;;18.60;8.20;;;4.60;99.90;;;;;;5063294;28;20074;-80
2022/02/03 06:42:24;;;;;;;29.83;12.30;;;4.60;99.90;;;;;;5062682;28;20032;-81
2022/02/03 06:44:57;;;;;;;25.98;12.23;;;4.60;99.90;;;;;;5026848;28;20037;-80
2022/02/03 06:47:47;;;;;;;22.15;9.05;;;4.60;99.90;;;;;;5044696;28;20033;-79
2022/02/03 06:50:18;;;;;;;21.30;8.38;;;4.60;99.90;;;;;;5030165;28;20043;-79
2022/02/03 06:52:51;;;;;;;18.48;7.68;;;4.70;99.90;;;;;;5029357;28;20059;-81
2022/02/03 06:55:29;;;;;;;28.23;8.88;;;4.60;99.90;;;;;;5043491;28;20075;-80
2022/02/03 07:00:53;;;;;;;18.55;8.25;;;4.60;99.90;;;;;;5045247;28;20033;-81
2022/02/03 07:03:21;;;;;;;23.23;8.27;;;4.50;99.90;;;;;;5042042;28;20063;-80
2022/02/03 07:05:47;;;;;;;19.75;9.00;;;4.60;99.90;;;;;;5044246;28;20037;-81
2022/02/03 07:08:20;;;;;;;29.92;9.75;;;4.60;99.90;;;;;;5041038;28;20040;-80
2022/02/03 07:11:01;;;;;;;24.27;8.30;;;4.60;99.90;;;;;;5023059;28;20089;-81
2022/02/03 07:13:33;;;;;;;26.33;9.23;;;4.60;99.90;;;;;;5009198;28;20029;-81
2022/02/03 07:15:59;;;;;;;19.98;8.23;;;4.70;99.90;;;;;;5028755;28;20033;-83
2022/02/03 07:18:28;;;;;;;19.63;8.82;;;4.70;99.90;;;;;;5031647;28;20029;-82
2022/02/03 07:20:54;;;;;;;20.15;8.82;;;4.70;99.90;;;;;;5031192;28;20041;-83
2022/02/03 07:23:19;;;;;;;21.52;8.30;;;4.70;99.90;;;;;;5037804;28;20082;-79
2022/02/03 07:25:45;;;;;;;22.50;8.05;;;4.70;99.90;;;;;;5048340;28;20060;-81
2022/02/03 07:28:12;;;;;;;28.20;8.40;;;4.70;99.90;;;;;;5033444;28;20025;-82
2022/02/03 07:30:37;;;;;;;24.52;9.10;;;4.70;99.90;;;;;;5045131;28;20067;-84
2022/02/03 07:33:06;;;;;;;21.73;8.70;;;4.80;99.90;;;;;;5034340;28;20013;-83
2022/02/03 07:35:34;;;;;;;23.52;8.18;;;4.70;99.90;;;;;;5059922;28;20090;-82
2022/02/03 07:38:02;;;;;;;20.05;8.15;;;4.70;99.90;;;;;;5035810;28;20028;-82
2022/02/03 07:40:59;;;;;;;21.55;8.27;;;4.80;99.90;;;;;;5049685;28;20044;-82
2022/02/03 07:43:25;;;;;;;23.23;8.15;;;4.80;99.90;;;;;;5045996;28;20052;-81
2022/02/03 07:45:51;;;;;;;22.13;8.82;;;4.80;99.90;;;;;;5009837;28;20393;-80
2022/02/03 07:48:29;;;;;;;22.23;8.43;;;4.90;99.90;;;;;;5005617;28;20454;-80
2022/02/03 07:50:55;;;;;;;25.92;9.52;;;4.90;99.90;;;;;;5054289;28;20025;-80
2022/02/03 07:53:21;;;;;;;24.63;10.52;;;4.80;99.90;;;;;;5040141;28;20092;-80
2022/02/03 07:55:47;;;;;;;18.00;9.73;;;4.80;99.90;;;;;;5023508;28;20127;-80
2022/02/03 07:58:12;;;;;;;26.42;9.80;;;4.90;99.90;;;;;;5028879;28;20060;-80
2022/02/03 08:00:38;;;;;;;22.02;10.82;;;4.90;99.90;;;;;;5042080;28;20048;-80
2022/02/03 08:03:09;;;;;;;22.85;9.77;;;5.00;99.90;;;;;;5061203;28;20488;-80
2022/02/03 08:05:36;;;;;;;27.05;10.13;;;5.00;99.90;;;;;;5055774;28;20678;-81
2022/02/03 08:08:07;;;;;;;27.67;10.55;;;5.10;99.90;;;;;;5036887;28;20079;-81
2022/02/03 08:10:46;;;;;;;26.35;10.30;;;5.00;99.90;;;;;;5036817;28;20032;-80
2022/02/03 08:13:18;;;;;;;22.55;10.35;;;5.10;99.90;;;;;;5048551;28;20030;-81
2022/02/03 08:15:44;;;;;;;21.58;9.43;;;5.10;99.90;;;;;;5032962;28;20037;-82
2022/02/03 08:18:18;;;;;;;19.60;9.15;;;5.10;99.90;;;;;;5024008;28;20042;-80
2022/02/03 08:20:52;;;;;;;27.52;11.35;;;5.10;99.90;;;;;;5025425;28;20057;-80
2022/02/03 08:25:57;;;;;;;24.67;9.68;;;5.20;99.90;;;;;;5024602;28;20069;-80
2022/02/03 08:28:40;;;;;;;25.20;9.30;;;5.20;99.90;;;;;;5026798;28;20063;-82
2022/02/03 08:31:10;;;;;;;27.30;9.10;;;5.20;99.90;;;;;;5029042;28;20102;-83
2022/02/03 08:33:36;;;;;;;22.83;9.02;;;5.20;99.90;;;;;;5030697;28;20029;-79
2022/02/03 08:36:05;;;;;;;21.95;10.05;;;5.30;99.90;;;;;;5030584;28;20082;-82
2022/02/03 08:41:09;;;;;;;19.02;8.40;;;5.40;99.90;;;;;;5046831;28;20104;-82
2022/02/03 08:43:36;;;;;;;16.65;8.63;;;5.40;99.90;;;;;;5046889;28;20044;-83
2022/02/03 08:46:07;;;;;;;23.08;10.75;;;5.40;99.90;;;;;;5016037;28;20033;-82
2022/02/03 08:48:34;;;;;;;23.13;9.15;;;5.40;99.90;;;;;;5050173;28;20041;-82
2022/02/03 08:51:02;;;;;;;27.67;10.05;;;5.40;99.90;;;;;;5023740;28;20033;-82
2022/02/03 08:53:33;;;;;;;25.73;9.52;;;5.40;99.90;;;;;;5023623;28;20044;-81
2022/02/03 09:32:22;;;;;;;19.02;9.02;;;5.70;99.90;;;;;;5044619;28;20033;-80
2022/02/03 09:38:27;;;;;;;22.42;10.00;;;6.00;99.90;;;;;;5067982;28;20089;-80
2022/02/03 09:56:24;;;;;;;19.08;9.43;;;6.20;99.90;;;;;;4983755;28;20042;-84
2022/02/03 09:59:04;;;;;;;15.02;9.05;;;6.20;99.90;;;;;;4985663;28;20042;-82
2022/02/03 10:01:35;;;;;;;21.98;9.23;;;6.30;99.90;;;;;;5010459;28;20075;-83
2022/02/03 10:06:59;;;;;;;18.52;9.50;;;6.40;99.90;;;;;;5016834;28;20091;-82
2022/02/03 10:09:39;;;;;;;23.80;10.00;;;6.50;99.90;;;;;;5010989;28;20038;-83
2022/02/03 10:12:06;;;;;;;15.20;8.95;;;6.50;99.90;;;;;;5027996;28;20048;-80
2022/02/03 10:14:43;;;;;;;18.10;9.63;;;6.50;99.90;;;;;;5029882;28;20093;-82
2022/02/03 10:17:10;;;;;;;17.83;9.13;;;6.60;99.90;;;;;;5045138;28;20052;-83
2022/02/03 10:19:40;;;;;;;18.13;10.48;;;6.60;99.90;;;;;;5060230;28;20115;-79
2022/02/03 10:22:23;;;;;;;16.35;9.35;;;6.70;99.90;;;;;;5024220;28;20038;-82
2022/02/03 10:24:52;;;;;;;14.98;10.35;;;6.70;99.90;;;;;;5043715;28;20049;-80
2022/02/03 10:27:33;;;;;;;16.15;9.73;;;6.80;99.90;;;;;;5026799;28;20168;-82
2022/02/03 10:30:26;;;;;;;12.43;9.35;;;6.80;99.90;;;;;;5043729;28;20025;-79
2022/02/03 10:32:53;;;;;;;11.77;9.07;;;6.80;99.90;;;;;;5022918;28;20034;-82
2022/02/03 10:35:34;;;;;;;17.33;9.25;;;6.90;99.90;;;;;;5024470;28;20072;-80
2022/02/03 10:49:30;;;;;;;19.08;10.70;;;7.00;99.90;;;;;;5043659;28;20030;-83
2022/02/03 10:57:49;;;;;;;18.23;10.85;;;7.10;99.90;;;;;;5059748;28;20481;-81
2022/02/03 11:00:53;;;;;;;15.27;10.50;;;7.20;99.90;;;;;;5043835;28;20060;-82
2022/02/03 11:10:54;;;;;;;17.60;10.80;;;7.20;99.90;;;;;;5020183;28;20033;-82
2022/02/03 11:13:20;;;;;;;17.80;11.27;;;7.20;99.90;;;;;;5028678;28;20021;-86
2022/02/03 11:15:49;;;;;;;16.30;10.18;;;7.30;99.90;;;;;;5020481;28;20043;-81
2022/02/03 11:18:17;;;;;;;18.17;11.88;;;7.40;99.90;;;;;;5061821;28;20073;-82
2022/02/03 11:20:47;;;;;;;16.27;9.60;;;7.40;99.90;;;;;;5021366;28;20033;-83
2022/02/03 11:23:30;;;;;;;15.80;10.50;;;7.50;99.90;;;;;;5022953;28;20040;-83
2022/02/03 11:26:08;;;;;;;17.63;11.18;;;7.50;99.90;;;;;;5019268;28;20038;-81
2022/02/03 11:34:38;;;;;;;12.65;9.50;;;7.60;99.90;;;;;;5044405;28;20041;-83
2022/02/03 11:40:12;;;;;;;13.60;9.53;;;7.70;99.90;;;;;;5062476;28;20052;-83
2022/02/03 12:10:51;;;;;;;11.07;7.88;;;7.90;99.90;;;;;;5049255;28;20033;-83
2022/02/03 12:21:50;;;;;;;10.68;8.80;;;7.90;99.90;;;;;;5044602;28;20094;-84
2022/02/03 12:27:14;;;;;;;12.25;9.25;;;8.00;99.90;;;;;;5022283;28;20562;-82
2022/02/03 12:29:53;;;;;;;13.32;8.80;;;8.00;99.90;;;;;;5040798;28;20029;-83
2022/02/03 12:40:08;;;;;;;;;;;8.10;99.90;;;;;;5041655;28;20507;-84
2022/02/03 12:42:54;;;;;;;8.77;7.88;;;8.10;99.90;;;;;;5044814;28;20003;-82
2022/02/03 12:45:30;;;;;;;12.65;7.95;;;8.10;99.90;;;;;;5033127;28;20496;-82
2022/02/03 12:47:59;;;;;;;9.88;8.27;;;8.10;99.90;;;;;;5032745;28;20082;-83
2022/02/03 12:50:36;;;;;;;9.43;8.10;;;8.10;99.90;;;;;;5031992;28;20033;-82
2022/02/03 12:53:03;;;;;;;11.05;8.40;;;8.10;99.90;;;;;;5047371;28;20373;-82
2022/02/03 12:55:33;;;;;;;13.60;8.82;;;8.10;99.90;;;;;;5014661;28;20033;-83
2022/02/03 12:58:25;;;;;;;23.17;9.07;;;8.20;99.90;;;;;;5046465;28;20044;-81
2022/02/03 13:00:59;;;;;;;12.23;9.60;;;8.20;99.90;;;;;;5045794;28;20025;-82
2022/02/03 13:03:41;;;;;;;;;;;8.20;99.90;;;;;;5048322;28;20060;-83
2022/02/03 13:06:12;;;;;;;12.23;9.00;;;8.10;99.90;;;;;;5064654;28;19916;-82
2022/02/03 13:08:48;;;;;;;10.82;8.98;;;8.10;99.90;;;;;;5064342;28;20397;-83
2022/02/03 13:12:07;;;;;;;13.20;9.43;;;8.10;99.90;;;;;;5063766;28;20029;-82
2022/02/03 13:14:28;;;;;;;11.65;8.82;;;8.20;99.90;;;;;;5048575;28;20041;-83
2022/02/03 13:17:01;;;;;;;11.40;8.70;;;8.10;99.90;;;;;;5044901;28;20024;-82
2022/02/03 13:19:42;;;;;;;11.93;8.82;;;8.10;99.90;;;;;;5025566;28;20033;-82
2022/02/03 13:22:34;;;;;;;14.23;9.73;;;8.10;99.90;;;;;;5053779;28;20021;-80
2022/02/03 13:28:50;;;;;;;12.50;9.48;;;8.10;99.90;;;;;;5036633;28;20048;-82
2022/02/03 13:31:08;;;;;;;12.38;9.32;;;8.10;99.90;;;;;;5053383;28;20049;-84
2022/02/03 13:33:44;;;;;;;12.90;9.52;;;8.10;99.90;;;;;;5065143;28;20059;-82
2022/02/03 13:36:20;;;;;;;12.45;9.35;;;8.20;99.90;;;;;;5062649;28;20044;-82
2022/02/03 13:39:03;;;;;;;11.15;8.68;;;8.20;99.90;;;;;;5056735;28;20049;-81
2022/02/03 13:41:34;;;;;;;11.90;8.45;;;8.20;99.90;;;;;;5042256;28;20009;-81
2022/02/03 13:44:04;;;;;;;10.73;8.43;;;8.30;99.90;;;;;;5034232;28;20025;-80
2022/02/03 13:46:33;;;;;;;11.65;8.02;;;8.30;99.90;;;;;;5050954;28;20056;-82
2022/02/03 13:48:59;;;;;;;9.88;7.60;;;8.30;99.90;;;;;;5056826;28;20045;-82
2022/02/03 13:51:37;;;;;;;10.25;8.25;;;8.30;99.90;;;;;;5042640;28;20052;-82
2022/02/03 13:54:20;;;;;;;10.27;8.20;;;8.30;99.90;;;;;;5049756;28;20037;-81
2022/02/03 14:11:43;;;;;;;10.65;7.43;;;8.40;99.90;;;;;;5050195;28;20025;-83
2022/02/03 14:16:47;;;;;;;9.48;7.22;;;8.40;99.90;;;;;;5061423;28;20048;-82
2022/02/03 14:21:47;;;;;;;9.05;7.15;;;8.40;99.90;;;;;;5048618;28;20033;-84
2022/02/03 14:27:20;;;;;;;11.13;7.75;;;8.40;99.90;;;;;;5033723;28;20567;-82
2022/02/03 14:29:49;;;;;;;9.68;7.63;;;8.30;99.90;;;;;;5028170;28;20041;-83
2022/02/03 14:32:20;;;;;;;8.20;7.18;;;8.30;99.90;;;;;;5013619;28;20519;-83
2022/02/03 14:34:50;;;;;;;8.43;7.10;;;8.30;99.90;;;;;;5047482;28;20037;-82
2022/02/03 14:37:27;;;;;;;8.35;7.45;;;8.30;99.90;;;;;;5031711;28;20041;-81
2022/02/03 14:42:20;;;;;;;9.65;7.78;;;8.20;99.90;;;;;;5048920;28;20032;-82
2022/02/03 14:44:46;;;;;;;9.82;7.47;;;8.30;99.90;;;;;;5014158;28;20086;-80
2022/02/03 14:47:11;;;;;;;10.80;7.82;;;8.20;99.90;;;;;;5043988;28;20033;-83
2022/02/03 14:49:44;;;;;;;11.88;8.15;;;8.20;99.90;;;;;;5024630;28;20116;-81
2022/02/03 14:52:26;;;;;;;9.30;7.18;;;8.20;99.90;;;;;;5041464;28;20028;-83
2022/02/03 15:00:27;;;;;;;9.13;7.45;;;8.30;99.90;;;;;;5050304;28;20071;-82
2022/02/03 15:02:54;;;;;;;9.45;7.07;;;8.20;99.90;;;;;;5048992;28;20068;-82
2022/02/03 15:05:29;;;;;;;10.30;6.90;;;8.30;99.90;;;;;;5046547;28;20029;-80
2022/02/03 15:07:59;;;;;;;7.22;6.43;;;8.20;99.90;;;;;;5029389;28;20066;-81
2022/02/03 15:15:51;;;;;;;10.03;6.87;;;8.40;99.90;;;;;;5065622;28;20051;-83
2022/02/03 15:18:17;;;;;;;7.15;5.50;;;8.40;99.90;;;;;;5029778;28;20283;-81
2022/02/03 15:20:48;;;;;;;7.03;5.82;;;8.40;99.90;;;;;;5030508;28;20060;-84
2022/02/03 15:23:14;;;;;;;6.45;5.57;;;8.40;99.90;;;;;;5051339;28;20021;-83
2022/02/03 15:25:40;;;;;;;6.82;5.40;;;8.40;99.90;;;;;;5054351;28;20459;-81
2022/02/03 15:28:07;;;;;;;5.25;4.75;;;8.40;99.90;;;;;;5034384;28;20037;-82
2022/02/03 15:30:42;;;;;;;6.55;4.47;;;8.50;99.90;;;;;;5049741;28;20029;-83
2022/02/03 15:33:23;;;;;;;6.38;4.57;;;8.50;99.90;;;;;;5045641;28;20029;-82
2022/02/03 15:35:51;;;;;;;8.25;4.70;;;8.50;99.90;;;;;;5046849;28;20048;-81
2022/02/03 15:38:20;;;;;;;5.05;4.28;;;8.50;99.90;;;;;;5030662;28;20119;-82
2022/02/03 15:40:50;;;;;;;5.10;4.60;;;8.60;99.90;;;;;;5046761;28;20033;-83
2022/02/03 15:43:27;;;;;;;5.40;4.10;;;8.50;99.90;;;;;;5030122;28;20247;-83
2022/02/03 15:46:02;;;;;;;5.55;4.60;;;8.50;99.90;;;;;;5040697;28;20033;-83
2022/02/03 15:48:56;;;;;;;4.85;3.83;;;8.50;99.90;;;;;;5053232;28;20021;-82
2022/02/03 16:17:36;;;;;;;4.45;3.90;;;8.40;99.90;;;;;;5059129;28;19962;-82
2022/02/03 16:52:44;;;;;;;6.30;5.50;;;8.40;99.90;;;;;;5066817;28;20040;-84
2022/02/03 16:55:14;;;;;;;8.40;5.65;;;8.30;99.90;;;;;;5050197;28;20032;-84
2022/02/03 16:57:44;;;;;;;5.97;5.38;;;8.40;99.90;;;;;;5036154;28;20484;-82
2022/02/03 17:00:15;;;;;;;6.40;5.60;;;8.30;99.90;;;;;;5033041;28;20102;-85
2022/02/03 17:02:41;;;;;;;6.15;5.30;;;8.40;99.90;;;;;;5031990;28;20049;-83
2022/02/03 17:05:08;;;;;;;6.60;5.60;;;8.50;99.90;;;;;;5037005;28;20115;-82
2022/02/03 17:07:54;;;;;;;6.28;5.47;;;8.40;99.90;;;;;;5050126;28;20055;-86
2022/02/03 17:10:42;;;;;;;6.28;5.10;;;8.50;99.90;;;;;;5048365;28;20033;-84
2022/02/03 17:13:08;;;;;;;7.47;5.22;;;8.40;99.90;;;;;;5035358;28;20029;-81
2022/02/03 17:15:35;;;;;;;5.97;5.38;;;8.50;99.90;;;;;;5049273;28;20062;-83
2022/02/03 17:18:04;;;;;;;5.80;5.20;;;8.40;99.90;;;;;;5030834;28;20040;-81
2022/02/03 17:20:32;;;;;;;7.53;5.40;;;8.30;99.90;;;;;;5014828;28;20052;-82
2022/02/03 17:22:58;;;;;;;7.30;5.63;;;8.30;99.90;;;;;;5055908;28;20036;-81
2022/02/03 17:28:09;;;;;;;9.70;6.25;;;8.30;99.90;;;;;;5046940;28;20064;-81
2022/02/03 17:30:42;;;;;;;7.85;6.57;;;8.40;99.90;;;;;;5043322;28;20426;-82
2022/02/03 18:36:45;;;;;;;8.02;6.40;;;8.10;99.90;;;;;;5073201;28;20043;-86
2022/02/03 18:53:03;;;;;;;9.27;7.05;;;8.20;99.90;;;;;;5078382;28;20044;-82
2022/02/03 18:58:16;;;;;;;8.77;7.20;;;8.10;99.90;;;;;;5057161;28;20045;-81
2022/02/03 19:14:38;;;;;;;10.10;8.40;;;8.10;99.90;;;;;;5054922;28;20111;-81
2022/02/03 19:25:47;;;;;;;10.50;8.50;;;8.00;99.90;;;;;;5045367;28;20024;-78
2022/02/03 20:08:51;;;;;;;11.90;10.07;;;7.90;99.90;;;;;;5026586;28;20044;-81
2022/02/03 20:11:22;;;;;;;11.48;9.80;;;7.90;99.90;;;;;;5042484;28;20075;-81
2022/02/03 20:13:49;;;;;;;11.95;9.55;;;8.00;99.90;;;;;;5040634;28;20171;-83
2022/02/03 20:16:17;;;;;;;12.88;10.43;;;8.00;99.90;;;;;;5021960;28;20060;-82
2022/02/03 20:18:43;;;;;;;13.18;9.82;;;8.00;99.90;;;;;;5022935;28;20033;-82
2022/02/03 20:21:09;;;;;;;12.35;10.35;;;8.00;99.90;;;;;;5043368;28;20080;-82
2022/02/03 20:23:41;;;;;;;13.52;10.40;;;7.90;99.90;;;;;;5034772;28;20041;-83
2022/02/03 20:26:13;;;;;;;13.07;10.25;;;7.90;99.90;;;;;;5026703;28;20064;-83
2022/02/03 20:28:39;;;;;;;12.85;10.32;;;7.90;99.90;;;;;;5008538;28;20045;-82
2022/02/03 20:31:05;;;;;;;13.90;10.43;;;7.90;99.90;;;;;;5008319;28;20022;-81
2022/02/03 20:33:31;;;;;;;13.10;10.45;;;7.90;99.90;;;;;;4992436;28;20068;-82
2022/02/03 20:36:00;;;;;;;12.88;10.10;;;7.90;99.90;;;;;;5009872;28;20056;-82
2022/02/03 20:38:26;;;;;;;13.40;10.63;;;7.90;99.90;;;;;;5047871;28;20051;-82
2022/02/03 20:40:52;;;;;;;11.20;9.80;;;7.90;99.90;;;;;;5050240;28;20037;-84
2022/02/03 20:43:24;;;;;;;11.77;9.98;;;8.00;99.90;;;;;;5029721;28;20511;-82
2022/02/03 20:45:54;;;;;;;13.80;10.73;;;8.00;99.90;;;;;;5063177;28;20097;-81
2022/02/03 20:48:20;;;;;;;12.43;9.80;;;8.00;99.90;;;;;;5026429;28;20042;-82
2022/02/03 20:50:46;;;;;;;13.82;10.50;;;8.00;99.90;;;;;;5027078;28;20044;-83
2022/02/03 20:53:14;;;;;;;13.65;10.63;;;8.00;99.90;;;;;;5043896;28;20060;-82
2022/02/03 20:55:51;;;;;;;16.67;12.63;;;8.00;99.90;;;;;;5044883;28;20084;-82
2022/02/03 20:58:20;;;;;;;10.80;9.70;;;7.90;99.90;;;;;;5031734;28;20472;-82
2022/02/03 21:01:04;;;;;;;12.48;10.52;;;7.90;99.90;;;;;;5029252;28;20093;-81
2022/02/03 21:03:36;;;;;;;10.93;9.15;;;7.80;99.90;;;;;;5047619;28;20037;-82
2022/02/03 21:06:04;;;;;;;11.70;10.32;;;7.90;99.90;;;;;;5049812;28;20496;-83
2022/02/03 21:08:35;;;;;;;11.30;9.95;;;7.70;99.90;;;;;;5027986;28;20077;-81
2022/02/03 21:11:06;;;;;;;12.60;9.80;;;7.80;99.90;;;;;;5046332;28;20088;-82
2022/02/03 21:13:32;;;;;;;12.50;10.40;;;7.80;99.90;;;;;;5065606;28;20024;-80
2022/02/03 21:16:08;;;;;;;11.77;9.80;;;7.70;99.90;;;;;;5028418;28;20093;-80
2022/02/03 21:18:41;;;;;;;12.73;10.00;;;7.80;99.90;;;;;;5047177;28;20020;-80
2022/02/03 21:21:07;;;;;;;13.75;10.50;;;7.70;99.90;;;;;;5064454;28;20029;-81
2022/02/03 21:23:36;;;;;;;12.13;9.80;;;7.60;99.90;;;;;;5048451;28;20169;-82
2022/02/03 21:26:13;;;;;;;13.48;10.10;;;7.70;99.90;;;;;;5050253;28;20041;-84
2022/02/03 21:28:46;;;;;;;11.70;10.45;;;7.70;99.90;;;;;;5037495;28;20090;-84
2022/02/03 21:31:19;;;;;;;12.52;10.38;;;7.70;99.90;;;;;;5036238;28;20028;-81
2022/02/03 21:33:55;;;;;;;13.75;11.63;;;7.70;99.90;;;;;;5069986;28;20029;-82
2022/02/03 21:36:35;;;;;;;11.98;10.10;;;7.60;99.90;;;;;;5071676;28;20013;-84
2022/02/03 21:39:02;;;;;;;14.18;11.10;;;7.70;99.90;;;;;;5070391;28;20391;-82
2022/02/03 21:41:28;;;;;;;11.88;10.18;;;7.60;99.90;;;;;;5054786;28;20120;-82
2022/02/03 21:44:15;;;;;;;12.40;10.52;;;7.60;99.90;;;;;;5063277;28;20036;-82
2022/02/03 21:46:49;;;;;;;13.52;10.60;;;7.60;99.90;;;;;;5032086;28;20029;-82
2022/02/03 21:49:21;;;;;;;12.57;10.63;;;7.60;99.90;;;;;;5031734;28;20052;-83
2022/02/03 21:51:48;;;;;;;14.68;11.57;;;7.60;99.90;;;;;;5053054;28;20235;-82
2022/02/03 21:54:20;;;;;;;12.55;11.20;;;7.60;99.90;;;;;;5043767;28;20044;-83
2022/02/03 21:56:52;;;;;;;12.60;10.63;;;7.60;99.90;;;;;;5061553;28;20047;-84
2022/02/03 21:59:17;;;;;;;15.02;11.93;;;7.60;99.90;;;;;;5061296;28;20091;-83
2022/02/03 22:01:43;;;;;;;13.52;10.55;;;7.60;99.90;;;;;;5039391;28;20615;-83
2022/02/03 22:04:10;;;;;;;12.88;10.27;;;7.70;99.90;;;;;;5029883;28;20032;-82
2022/02/03 22:06:38;;;;;;;13.95;11.23;;;7.60;99.90;;;;;;5042723;28;20158;-82
2022/02/03 22:09:04;;;;;;;13.55;11.48;;;7.40;99.90;;;;;;5066901;28;20025;-82
2022/02/03 22:11:30;;;;;;;14.02;12.00;;;7.30;99.90;;;;;;5046043;28;20443;-82
2022/02/03 22:13:56;;;;;;;15.02;11.82;;;7.30;99.90;;;;;;5045603;28;20036;-84
2022/02/03 22:16:25;;;;;;;12.75;11.02;;;7.30;99.90;;;;;;5029054;28;20400;-81
2022/02/03 22:19:01;;;;;;;17.55;13.00;;;7.50;99.90;;;;;;5046733;28;20033;-83
2022/02/03 22:21:51;;;;;;;13.93;12.23;;;7.60;99.90;;;;;;5036814;28;20039;-83
2022/02/03 22:24:50;;;;;;;17.48;13.15;;;7.70;99.90;;;;;;5021108;28;20053;-82
2022/02/03 22:39:34;;;;;;;20.95;15.40;;;7.40;99.90;;;;;;5051933;28;20041;-83
2022/02/03 22:42:27;;;;;;;19.75;14.63;;;7.30;99.90;;;;;;5045486;28;20041;-81
2022/02/03 22:47:38;;;;;;;17.52;15.00;;;7.50;99.90;;;;;;5045793;28;20029;-83
2022/02/03 22:50:07;;;;;;;19.48;15.07;;;7.40;99.90;;;;;;5046262;28;20033;-82
2022/02/03 22:52:33;;;;;;;19.00;14.18;;;7.30;99.90;;;;;;5025455;28;20044;-80
2022/02/03 22:54:59;;;;;;;20.25;15.32;;;7.30;99.90;;;;;;5040599;28;20108;-82
2022/02/03 22:57:25;;;;;;;19.25;15.07;;;7.30;99.90;;;;;;5042129;28;20047;-84
2022/02/03 23:00:15;;;;;;;20.38;15.27;;;7.30;99.90;;;;;;5053155;28;20031;-81
2022/02/03 23:02:37;;;;;;;21.20;15.68;;;7.30;99.90;;;;;;5045416;28;20156;-82
2022/02/03 23:05:04;;;;;;;20.45;14.88;;;7.10;99.90;;;;;;5025734;28;20056;-83
2022/02/03 23:10:23;;;;;;;23.63;15.55;;;7.00;99.90;;;;;;5038027;28;20071;-83
2022/02/03 23:15:30;;;;;;;23.48;15.77;;;7.00;99.90;;;;;;5058580;28;20025;-82
2022/02/03 23:18:48;;;;;;;24.10;17.65;;;7.00;99.90;;;;;;5013438;28;20088;-82
2022/02/03 23:21:13;;;;;;;25.23;17.80;;;7.00;99.90;;;;;;5032859;28;20060;-86
2022/02/03 23:23:34;;;;;;;26.13;18.20;;;7.00;99.90;;;;;;5048765;28;20037;-85
2022/02/03 23:26:00;;;;;;;24.83;17.60;;;7.00;99.90;;;;;;5083535;28;20193;-86
2022/02/03 23:28:31;;;;;;;24.90;17.77;;;7.00;99.90;;;;;;5050038;28;20036;-87
2022/02/03 23:30:58;;;;;;;24.05;17.95;;;7.10;99.90;;;;;;5049142;28;20035;-86
2022/02/03 23:33:24;;;;;;;27.67;18.55;;;7.20;99.90;;;;;;5049629;28;20038;-84
2022/02/03 23:35:50;;;;;;;25.67;18.83;;;7.10;99.90;;;;;;5046537;28;20017;-84
2022/02/03 23:47:58;;;;;;;26.88;18.27;;;7.00;99.90;;;;;;4990462;28;20071;-81
